sensor_id;sensor_type;location;lat;lon;timestamp;pressure;altitude;pressure_sealevel;temperature;humidity
67545;BME280;54380;47.770;11.150;2023-01-26T00:00:11;95128.28;;;0.99;66.13
67545;BME280;54380;47.770;11.150;2023-01-26T00:02:38;95131.50;;;1.01;66.35
67545;BME280;54380;47.770;11.150;2023-01-26T00:05:05;95126.16;;;1.03;66.27
67545;BME280;54380;47.770;11.150;2023-01-26T00:07:32;95129.53;;;1.03;66.45
67545;BME280;54380;47.770;11.150;2023-01-26T00:09:59;95131.50;;;1.01;66.87
67545;BME280;54380;47.770;11.150;2023-01-26T00:12:26;95129.16;;;1.06;66.78
67545;BME280;54380;47.770;11.150;2023-01-26T00:14:52;95122.78;;;1.09;66.82
67545;BME280;54380;47.770;11.150;2023-01-26T00:17:20;95121.00;;;1.09;66.83
67545;BME280;54380;47.770;11.150;2023-01-26T00:19:55;95119.16;;;1.03;67.23
67545;BME280;54380;47.770;11.150;2023-01-26T00:22:22;95129.53;;;1.03;67.45
67545;BME280;54380;47.770;11.150;2023-01-26T00:24:49;95116.16;;;1.06;67.48
67545;BME280;54380;47.770;11.150;2023-01-26T00:27:16;95112.81;;;1.13;67.39
67545;BME280;54380;47.770;11.150;2023-01-26T00:29:43;95103.13;;;1.21;67.29
67545;BME280;54380;47.770;11.150;2023-01-26T00:32:09;95098.97;;;1.27;67.17
67545;BME280;54380;47.770;11.150;2023-01-26T00:34:37;95105.84;;;1.35;66.99
67545;BME280;54380;47.770;11.150;2023-01-26T00:37:04;95105.63;;;1.36;67.13
67545;BME280;54380;47.770;11.150;2023-01-26T00:39:31;95106.09;;;1.40;66.82
67545;BME280;54380;47.770;11.150;2023-01-26T00:41:59;95107.50;;;1.42;66.75
67545;BME280;54380;47.770;11.150;2023-01-26T00:44:33;95109.91;;;1.44;66.42
67545;BME280;54380;47.770;11.150;2023-01-26T00:47:00;95107.69;;;1.41;66.11
67545;BME280;54380;47.770;11.150;2023-01-26T00:49:27;95113.44;;;1.36;66.07
67545;BME280;54380;47.770;11.150;2023-01-26T00:51:55;95103.59;;;1.31;66.19
67545;BME280;54380;47.770;11.150;2023-01-26T00:54:22;95105.22;;;1.33;66.70
67545;BME280;54380;47.770;11.150;2023-01-26T00:56:49;95113.25;;;1.38;66.41
67545;BME280;54380;47.770;11.150;2023-01-26T00:59:15;95106.50;;;1.43;66.42
67545;BME280;54380;47.770;11.150;2023-01-26T01:01:44;95108.09;;;1.44;66.29
67545;BME280;54380;47.770;11.150;2023-01-26T01:04:12;95115.09;;;1.44;66.41
67545;BME280;54380;47.770;11.150;2023-01-26T01:06:39;95116.69;;;1.45;66.39
67545;BME280;54380;47.770;11.150;2023-01-26T01:09:07;95110.16;;;1.49;66.50
67545;BME280;54380;47.770;11.150;2023-01-26T01:11:34;95109.13;;;1.50;66.28
67545;BME280;54380;47.770;11.150;2023-01-26T01:14:01;95110.38;;;1.54;66.43
67545;BME280;54380;47.770;11.150;2023-01-26T01:16:28;95111.00;;;1.56;66.63
67545;BME280;54380;47.770;11.150;2023-01-26T01:18:56;95106.22;;;1.60;66.40
67545;BME280;54380;47.770;11.150;2023-01-26T01:21:23;95109.25;;;1.63;66.45
67545;BME280;54380;47.770;11.150;2023-01-26T01:23:52;95111.84;;;1.63;66.09
67545;BME280;54380;47.770;11.150;2023-01-26T01:26:20;95113.47;;;1.64;66.24
67545;BME280;54380;47.770;11.150;2023-01-26T01:28:47;95113.25;;;1.66;66.13
67545;BME280;54380;47.770;11.150;2023-01-26T01:31:15;95101.69;;;1.68;65.75
67545;BME280;54380;47.770;11.150;2023-01-26T01:33:42;95094.69;;;1.69;65.69
67545;BME280;54380;47.770;11.150;2023-01-26T01:36:11;95096.47;;;1.68;65.92
67545;BME280;54380;47.770;11.150;2023-01-26T01:38:38;95099.28;;;1.67;66.13
67545;BME280;54380;47.770;11.150;2023-01-26T01:41:05;95097.31;;;1.69;66.04
67545;BME280;54380;47.770;11.150;2023-01-26T01:43:34;95098.91;;;1.70;66.00
67545;BME280;54380;47.770;11.150;2023-01-26T01:46:02;95100.50;;;1.71;65.56
67545;BME280;54380;47.770;11.150;2023-01-26T01:48:37;95102.13;;;1.72;65.89
67545;BME280;54380;47.770;11.150;2023-01-26T01:51:06;95095.91;;;1.73;65.71
67545;BME280;54380;47.770;11.150;2023-01-26T01:53:37;95091.72;;;1.72;65.73
67545;BME280;54380;47.770;11.150;2023-01-26T01:56:08;95091.09;;;1.70;65.62
67545;BME280;54380;47.770;11.150;2023-01-26T01:58:40;95090.09;;;1.71;65.78
67545;BME280;54380;47.770;11.150;2023-01-26T02:01:08;95094.50;;;1.70;65.47
67545;BME280;54380;47.770;11.150;2023-01-26T02:03:37;95087.88;;;1.68;65.57
67545;BME280;54380;47.770;11.150;2023-01-26T02:06:09;95082.44;;;1.63;65.54
67545;BME280;54380;47.770;11.150;2023-01-26T02:08:39;95083.59;;;1.60;66.06
67545;BME280;54380;47.770;11.150;2023-01-26T02:11:09;95085.41;;;1.60;65.88
67545;BME280;54380;47.770;11.150;2023-01-26T02:13:38;95081.38;;;1.57;65.72
67545;BME280;54380;47.770;11.150;2023-01-26T02:16:07;95084.00;;;1.57;65.49
67545;BME280;54380;47.770;11.150;2023-01-26T02:18:33;95084.59;;;1.59;65.67
67545;BME280;54380;47.770;11.150;2023-01-26T02:21:02;95075.00;;;1.60;66.01
67545;BME280;54380;47.770;11.150;2023-01-26T02:23:38;95068.81;;;1.61;65.81
67545;BME280;54380;47.770;11.150;2023-01-26T02:26:12;95074.63;;;1.63;65.68
67545;BME280;54380;47.770;11.150;2023-01-26T02:28:40;95071.84;;;1.64;65.14
67545;BME280;54380;47.770;11.150;2023-01-26T02:31:09;95076.25;;;1.64;65.21
67545;BME280;54380;47.770;11.150;2023-01-26T02:33:36;95066.81;;;1.63;65.62
67545;BME280;54380;47.770;11.150;2023-01-26T02:36:05;95062.63;;;1.62;65.55
67545;BME280;54380;47.770;11.150;2023-01-26T02:38:39;95056.63;;;1.61;65.56
67545;BME280;54380;47.770;11.150;2023-01-26T02:41:07;95061.81;;;1.61;65.47
67545;BME280;54380;47.770;11.150;2023-01-26T02:43:37;95058.22;;;1.62;65.85
67545;BME280;54380;47.770;11.150;2023-01-26T02:46:04;95056.63;;;1.61;65.48
67545;BME280;54380;47.770;11.150;2023-01-26T02:48:35;95047.81;;;1.62;65.51
67545;BME280;54380;47.770;11.150;2023-01-26T02:51:21;95039.38;;;1.60;64.98
67545;BME280;54380;47.770;11.150;2023-01-26T02:53:48;95034.56;;;1.57;64.91
67545;BME280;54380;47.770;11.150;2023-01-26T02:56:16;95033.34;;;1.53;64.59
67545;BME280;54380;47.770;11.150;2023-01-26T02:58:44;95033.09;;;1.48;64.50
67545;BME280;54380;47.770;11.150;2023-01-26T03:01:10;95035.09;;;1.46;64.89
67545;BME280;54380;47.770;11.150;2023-01-26T03:03:45;95025.25;;;1.41;65.10
67545;BME280;54380;47.770;11.150;2023-01-26T03:06:13;95021.22;;;1.39;65.32
67545;BME280;54380;47.770;11.150;2023-01-26T03:08:40;95028.06;;;1.40;65.13
67545;BME280;54380;47.770;11.150;2023-01-26T03:11:08;95026.00;;;1.35;65.03
67545;BME280;54380;47.770;11.150;2023-01-26T03:13:36;95029.16;;;1.30;64.82
67545;BME280;54380;47.770;11.150;2023-01-26T03:16:07;95027.34;;;1.24;65.38
67545;BME280;54380;47.770;11.150;2023-01-26T03:18:34;95020.72;;;1.22;65.60
67545;BME280;54380;47.770;11.150;2023-01-26T03:21:20;95019.09;;;1.21;65.75
67545;BME280;54380;47.770;11.150;2023-01-26T03:24:10;95012.91;;;1.22;65.75
67545;BME280;54380;47.770;11.150;2023-01-26T03:26:57;95022.53;;;1.21;65.73
67545;BME280;54380;47.770;11.150;2023-01-26T03:29:44;95012.28;;;1.20;65.97
67545;BME280;54380;47.770;11.150;2023-01-26T03:32:12;95021.44;;;1.16;65.59
67545;BME280;54380;47.770;11.150;2023-01-26T03:34:40;95013.41;;;1.10;66.13
67545;BME280;54380;47.770;11.150;2023-01-26T03:37:07;95015.41;;;1.08;65.96
67545;BME280;54380;47.770;11.150;2023-01-26T03:39:42;95022.41;;;1.08;66.41
67545;BME280;54380;47.770;11.150;2023-01-26T03:42:27;95019.38;;;1.04;66.39
67545;BME280;54380;47.770;11.150;2023-01-26T03:45:13;95016.97;;;1.03;66.82
67545;BME280;54380;47.770;11.150;2023-01-26T03:48:04;95011.00;;;1.09;66.25
67545;BME280;54380;47.770;11.150;2023-01-26T03:50:50;95014.78;;;1.06;65.99
67545;BME280;54380;47.770;11.150;2023-01-26T03:53:35;95008.00;;;1.05;66.17
67545;BME280;54380;47.770;11.150;2023-01-26T03:56:21;95011.38;;;1.06;66.21
67545;BME280;54380;47.770;11.150;2023-01-26T03:58:55;95014.97;;;1.05;66.25
67545;BME280;54380;47.770;11.150;2023-01-26T04:01:25;95002.59;;;1.07;66.52
67545;BME280;54380;47.770;11.150;2023-01-26T04:03:57;95002.78;;;1.05;65.75
67545;BME280;54380;47.770;11.150;2023-01-26T04:06:46;95004.69;;;0.97;65.49
67545;BME280;54380;47.770;11.150;2023-01-26T04:09:32;95005.09;;;0.94;65.81
67545;BME280;54380;47.770;11.150;2023-01-26T04:11:59;95000.63;;;0.87;66.07
67545;BME280;54380;47.770;11.150;2023-01-26T04:14:27;95006.81;;;0.86;66.21
67545;BME280;54380;47.770;11.150;2023-01-26T04:17:19;94996.06;;;0.90;65.86
67545;BME280;54380;47.770;11.150;2023-01-26T04:20:07;94997.66;;;0.91;65.73
67545;BME280;54380;47.770;11.150;2023-01-26T04:22:53;94993.25;;;0.91;65.64
67545;BME280;54380;47.770;11.150;2023-01-26T04:25:20;94983.28;;;0.95;65.59
67545;BME280;54380;47.770;11.150;2023-01-26T04:27:48;94977.91;;;0.96;65.44
67545;BME280;54380;47.770;11.150;2023-01-26T04:30:16;94973.72;;;0.95;65.37
67545;BME280;54380;47.770;11.150;2023-01-26T04:32:43;94971.13;;;0.95;65.17
67545;BME280;54380;47.770;11.150;2023-01-26T04:35:13;94973.28;;;0.92;65.52
67545;BME280;54380;47.770;11.150;2023-01-26T04:37:41;94973.09;;;0.93;65.88
67545;BME280;54380;47.770;11.150;2023-01-26T04:40:09;94977.91;;;0.96;65.76
67545;BME280;54380;47.770;11.150;2023-01-26T04:42:36;94979.75;;;1.02;66.41
67545;BME280;54380;47.770;11.150;2023-01-26T04:45:05;94976.03;;;1.12;66.30
67545;BME280;54380;47.770;11.150;2023-01-26T04:47:33;94974.47;;;1.17;66.15
67545;BME280;54380;47.770;11.150;2023-01-26T04:50:00;94964.69;;;1.19;66.10
67545;BME280;54380;47.770;11.150;2023-01-26T04:52:29;94969.88;;;1.19;65.37
67545;BME280;54380;47.770;11.150;2023-01-26T04:54:55;94968.09;;;1.20;65.54
67545;BME280;54380;47.770;11.150;2023-01-26T04:57:22;94968.88;;;1.20;65.30
67545;BME280;54380;47.770;11.150;2023-01-26T04:59:50;94978.31;;;1.21;64.84
67545;BME280;54380;47.770;11.150;2023-01-26T05:02:18;94968.25;;;1.18;64.76
67545;BME280;54380;47.770;11.150;2023-01-26T05:04:45;94972.66;;;1.18;64.71
67545;BME280;54380;47.770;11.150;2023-01-26T05:07:13;94977.47;;;1.14;65.09
67545;BME280;54380;47.770;11.150;2023-01-26T05:09:41;94975.66;;;1.15;64.99
67545;BME280;54380;47.770;11.150;2023-01-26T05:12:20;94981.03;;;1.13;65.31
67545;BME280;54380;47.770;11.150;2023-01-26T05:15:22;94983.97;;;1.03;65.33
67545;BME280;54380;47.770;11.150;2023-01-26T05:17:59;94986.09;;;0.93;65.00
67545;BME280;54380;47.770;11.150;2023-01-26T05:20:46;94987.44;;;0.89;64.78
67545;BME280;54380;47.770;11.150;2023-01-26T05:23:16;94982.81;;;0.84;65.29
67545;BME280;54380;47.770;11.150;2023-01-26T05:26:07;94987.19;;;0.84;65.48
67545;BME280;54380;47.770;11.150;2023-01-26T05:28:43;94984.00;;;0.82;64.96
67545;BME280;54380;47.770;11.150;2023-01-26T05:31:10;94990.38;;;0.79;65.21
67545;BME280;54380;47.770;11.150;2023-01-26T05:33:36;94989.56;;;0.79;65.71
67545;BME280;54380;47.770;11.150;2023-01-26T05:36:05;94984.97;;;0.81;65.61
67545;BME280;54380;47.770;11.150;2023-01-26T05:38:33;94991.19;;;0.80;65.76
67545;BME280;54380;47.770;11.150;2023-01-26T05:41:00;94984.19;;;0.80;65.60
67545;BME280;54380;47.770;11.150;2023-01-26T05:43:32;94990.38;;;0.79;65.54
67545;BME280;54380;47.770;11.150;2023-01-26T05:46:14;94987.91;;;0.71;65.65
67545;BME280;54380;47.770;11.150;2023-01-26T05:48:42;94988.09;;;0.70;65.65
67545;BME280;54380;47.770;11.150;2023-01-26T05:51:09;94991.06;;;0.67;65.46
67545;BME280;54380;47.770;11.150;2023-01-26T05:53:37;94980.66;;;0.67;65.80
67545;BME280;54380;47.770;11.150;2023-01-26T05:56:04;94976.91;;;0.69;65.82
67545;BME280;54380;47.770;11.150;2023-01-26T05:58:34;94986.13;;;0.72;65.76
67545;BME280;54380;47.770;11.150;2023-01-26T06:01:03;94986.13;;;0.72;65.55
67545;BME280;54380;47.770;11.150;2023-01-26T06:03:35;94990.69;;;0.70;64.97
67545;BME280;54380;47.770;11.150;2023-01-26T06:06:02;94999.47;;;0.69;65.20
67545;BME280;54380;47.770;11.150;2023-01-26T06:08:38;94994.47;;;0.67;64.42
67545;BME280;54380;47.770;11.150;2023-01-26T06:11:24;94994.22;;;0.62;64.98
67545;BME280;54380;47.770;11.150;2023-01-26T06:14:21;94994.59;;;0.59;65.67
67545;BME280;54380;47.770;11.150;2023-01-26T06:16:48;94997.19;;;0.59;65.34
67545;BME280;54380;47.770;11.150;2023-01-26T06:19:15;94998.16;;;0.58;65.78
67545;BME280;54380;47.770;11.150;2023-01-26T06:21:47;94997.72;;;0.54;65.75
67545;BME280;54380;47.770;11.150;2023-01-26T06:24:14;94999.53;;;0.54;65.42
67545;BME280;54380;47.770;11.150;2023-01-26T06:26:41;94994.50;;;0.52;65.32
67545;BME280;54380;47.770;11.150;2023-01-26T06:29:09;94994.25;;;0.47;65.53
67545;BME280;54380;47.770;11.150;2023-01-26T06:31:37;94995.78;;;0.41;64.82
67545;BME280;54380;47.770;11.150;2023-01-26T06:34:04;95003.78;;;0.40;65.14
67545;BME280;54380;47.770;11.150;2023-01-26T06:36:36;95004.75;;;0.39;64.62
67545;BME280;54380;47.770;11.150;2023-01-26T06:39:04;94993.41;;;0.40;64.81
67545;BME280;54380;47.770;11.150;2023-01-26T06:41:30;94996.78;;;0.40;65.82
67545;BME280;54380;47.770;11.150;2023-01-26T06:43:58;95002.97;;;0.39;66.18
67545;BME280;54380;47.770;11.150;2023-01-26T06:46:25;95005.22;;;0.42;65.69
67545;BME280;54380;47.770;11.150;2023-01-26T06:48:54;94994.19;;;0.40;64.75
67545;BME280;54380;47.770;11.150;2023-01-26T06:51:46;94994.81;;;0.42;65.07
67545;BME280;54380;47.770;11.150;2023-01-26T06:54:14;94993.66;;;0.45;65.48
67545;BME280;54380;47.770;11.150;2023-01-26T06:57:07;94993.66;;;0.45;65.29
67545;BME280;54380;47.770;11.150;2023-01-26T06:59:57;94995.78;;;0.41;65.64
67545;BME280;54380;47.770;11.150;2023-01-26T07:02:42;94994.56;;;0.37;65.24
67545;BME280;54380;47.770;11.150;2023-01-26T07:05:10;94992.94;;;0.36;65.03
67545;BME280;54380;47.770;11.150;2023-01-26T07:07:38;94991.53;;;0.34;65.63
67545;BME280;54380;47.770;11.150;2023-01-26T07:10:05;94991.34;;;0.35;65.93
67545;BME280;54380;47.770;11.150;2023-01-26T07:12:40;94983.56;;;0.35;65.49
67545;BME280;54380;47.770;11.150;2023-01-26T07:15:08;94991.88;;;0.31;65.79
67545;BME280;54380;47.770;11.150;2023-01-26T07:17:34;94987.69;;;0.30;66.06
67545;BME280;54380;47.770;11.150;2023-01-26T07:20:01;94989.50;;;0.29;66.09
67545;BME280;54380;47.770;11.150;2023-01-26T07:22:29;94988.50;;;0.30;66.27
67545;BME280;54380;47.770;11.150;2023-01-26T07:24:56;94985.91;;;0.30;66.38
67545;BME280;54380;47.770;11.150;2023-01-26T07:27:22;94992.53;;;0.33;66.47
67545;BME280;54380;47.770;11.150;2023-01-26T07:29:49;94995.28;;;0.31;66.05
67545;BME280;54380;47.770;11.150;2023-01-26T07:32:16;94994.13;;;0.34;65.88
67545;BME280;54380;47.770;11.150;2023-01-26T07:34:44;94993.16;;;0.35;65.99
67545;BME280;54380;47.770;11.150;2023-01-26T07:37:10;94991.16;;;0.37;65.70
67545;BME280;54380;47.770;11.150;2023-01-26T07:39:38;94992.56;;;0.39;65.67
67545;BME280;54380;47.770;11.150;2023-01-26T07:42:05;94997.59;;;0.41;66.00
67545;BME280;54380;47.770;11.150;2023-01-26T07:44:46;94988.63;;;0.43;65.96
67545;BME280;54380;47.770;11.150;2023-01-26T07:47:13;94986.28;;;0.49;65.53
67545;BME280;54380;47.770;11.150;2023-01-26T07:49:40;94985.75;;;0.53;64.92
67545;BME280;54380;47.770;11.150;2023-01-26T07:52:06;94981.72;;;0.51;64.62
67545;BME280;54380;47.770;11.150;2023-01-26T07:54:34;94979.25;;;0.42;64.26
67545;BME280;54380;47.770;11.150;2023-01-26T07:57:02;94974.41;;;0.39;64.49
67545;BME280;54380;47.770;11.150;2023-01-26T07:59:32;94970.75;;;0.34;64.22
67545;BME280;54380;47.770;11.150;2023-01-26T08:01:59;94974.72;;;0.30;64.32
67545;BME280;54380;47.770;11.150;2023-01-26T08:04:26;94967.56;;;0.32;64.30
67545;BME280;54380;47.770;11.150;2023-01-26T08:06:53;94986.94;;;0.36;64.78
67545;BME280;54380;47.770;11.150;2023-01-26T08:09:19;94975.41;;;0.38;64.93
67545;BME280;54380;47.770;11.150;2023-01-26T08:11:46;94972.25;;;0.43;64.73
67545;BME280;54380;47.770;11.150;2023-01-26T08:14:14;94968.28;;;0.47;64.61
67545;BME280;54380;47.770;11.150;2023-01-26T08:16:41;94971.34;;;0.51;64.46
67545;BME280;54380;47.770;11.150;2023-01-26T08:19:08;94965.56;;;0.55;64.54
67545;BME280;54380;47.770;11.150;2023-01-26T08:21:35;94963.59;;;0.57;64.71
67545;BME280;54380;47.770;11.150;2023-01-26T08:24:01;94969.41;;;0.59;64.81
67545;BME280;54380;47.770;11.150;2023-01-26T08:26:29;94962.97;;;0.55;64.90
67545;BME280;54380;47.770;11.150;2023-01-26T08:28:55;94966.94;;;0.51;64.77
67545;BME280;54380;47.770;11.150;2023-01-26T08:31:23;94960.31;;;0.49;65.25
67545;BME280;54380;47.770;11.150;2023-01-26T08:33:51;94961.88;;;0.43;65.28
67545;BME280;54380;47.770;11.150;2023-01-26T08:36:18;94966.59;;;0.39;65.45
67545;BME280;54380;47.770;11.150;2023-01-26T08:38:48;94966.19;;;0.36;65.75
67545;BME280;54380;47.770;11.150;2023-01-26T08:41:15;94966.19;;;0.36;65.01
67545;BME280;54380;47.770;11.150;2023-01-26T08:43:42;94966.44;;;0.41;65.24
67545;BME280;54380;47.770;11.150;2023-01-26T08:46:09;94963.66;;;0.42;65.30
67545;BME280;54380;47.770;11.150;2023-01-26T08:48:37;94952.44;;;0.42;65.72
67545;BME280;54380;47.770;11.150;2023-01-26T08:51:05;94960.88;;;0.44;65.27
67545;BME280;54380;47.770;11.150;2023-01-26T08:53:34;94958.28;;;0.44;64.49
67545;BME280;54380;47.770;11.150;2023-01-26T08:56:01;94960.81;;;0.37;64.30
67545;BME280;54380;47.770;11.150;2023-01-26T08:58:28;94956.41;;;0.38;64.13
67545;BME280;54380;47.770;11.150;2023-01-26T09:00:55;94954.63;;;0.38;64.50
67545;BME280;54380;47.770;11.150;2023-01-26T09:03:21;94956.41;;;0.38;65.32
67545;BME280;54380;47.770;11.150;2023-01-26T09:05:49;94957.59;;;0.35;65.61
67545;BME280;54380;47.770;11.150;2023-01-26T09:08:16;94957.59;;;0.35;66.45
67545;BME280;54380;47.770;11.150;2023-01-26T09:10:43;94964.00;;;0.39;65.85
67545;BME280;54380;47.770;11.150;2023-01-26T09:13:10;94958.22;;;0.37;65.04
67545;BME280;54380;47.770;11.150;2023-01-26T09:15:37;94956.78;;;0.35;65.17
67545;BME280;54380;47.770;11.150;2023-01-26T09:18:04;94956.00;;;0.34;65.61
67545;BME280;54380;47.770;11.150;2023-01-26T09:20:31;94954.78;;;0.37;65.51
67545;BME280;54380;47.770;11.150;2023-01-26T09:22:59;94958.81;;;0.39;66.11
67545;BME280;54380;47.770;11.150;2023-01-26T09:25:26;94959.03;;;0.38;66.30
67545;BME280;54380;47.770;11.150;2023-01-26T09:27:52;94958.75;;;0.33;66.27
67545;BME280;54380;47.770;11.150;2023-01-26T09:30:19;94956.97;;;0.33;66.11
67545;BME280;54380;47.770;11.150;2023-01-26T09:32:46;94959.56;;;0.33;66.00
67545;BME280;54380;47.770;11.150;2023-01-26T09:35:13;94958.34;;;0.29;66.33
67545;BME280;54380;47.770;11.150;2023-01-26T09:37:42;94960.94;;;0.29;66.47
67545;BME280;54380;47.770;11.150;2023-01-26T09:40:15;94969.41;;;0.38;66.39
67545;BME280;54380;47.770;11.150;2023-01-26T09:42:52;94973.47;;;0.47;65.94
67545;BME280;54380;47.770;11.150;2023-01-26T09:45:26;94970.31;;;0.52;65.80
67545;BME280;54380;47.770;11.150;2023-01-26T09:48:06;94977.75;;;0.55;65.63
67545;BME280;54380;47.770;11.150;2023-01-26T09:50:37;94973.19;;;0.57;65.63
67545;BME280;54380;47.770;11.150;2023-01-26T09:53:12;94971.00;;;0.60;65.51
67545;BME280;54380;47.770;11.150;2023-01-26T09:55:43;94969.66;;;0.64;65.53
67545;BME280;54380;47.770;11.150;2023-01-26T09:58:13;94969.28;;;0.68;65.65
67545;BME280;54380;47.770;11.150;2023-01-26T10:00:45;94964.06;;;0.68;65.96
67545;BME280;54380;47.770;11.150;2023-01-26T10:03:19;94963.31;;;0.74;65.84
67545;BME280;54380;47.770;11.150;2023-01-26T10:05:50;94970.56;;;0.78;64.86
67545;BME280;54380;47.770;11.150;2023-01-26T10:08:38;94960.56;;;0.75;64.48
67545;BME280;54380;47.770;11.150;2023-01-26T10:11:13;94967.72;;;0.73;64.26
67545;BME280;54380;47.770;11.150;2023-01-26T10:13:49;94963.91;;;0.69;63.74
67545;BME280;54380;47.770;11.150;2023-01-26T10:16:16;94972.25;;;0.64;63.55
67545;BME280;54380;47.770;11.150;2023-01-26T10:18:51;94955.78;;;0.57;63.25
67545;BME280;54380;47.770;11.150;2023-01-26T10:21:22;94954.75;;;0.52;63.82
67545;BME280;54380;47.770;11.150;2023-01-26T10:23:51;94954.31;;;0.48;64.01
67545;BME280;54380;47.770;11.150;2023-01-26T10:26:21;94952.56;;;0.55;64.44
67545;BME280;54380;47.770;11.150;2023-01-26T10:28:49;94952.47;;;0.63;64.24
67545;BME280;54380;47.770;11.150;2023-01-26T10:31:19;94945.09;;;0.67;64.35
67545;BME280;54380;47.770;11.150;2023-01-26T10:33:49;94946.50;;;0.70;63.54
67545;BME280;54380;47.770;11.150;2023-01-26T10:36:17;94943.13;;;0.69;63.29
67545;BME280;54380;47.770;11.150;2023-01-26T10:38:45;94937.94;;;0.69;63.33
67545;BME280;54380;47.770;11.150;2023-01-26T10:41:32;94944.91;;;0.69;63.13
67545;BME280;54380;47.770;11.150;2023-01-26T10:44:00;94944.47;;;0.65;62.89
67545;BME280;54380;47.770;11.150;2023-01-26T10:46:31;94941.88;;;0.65;62.72
67545;BME280;54380;47.770;11.150;2023-01-26T10:49:00;94938.06;;;0.61;63.05
67545;BME280;54380;47.770;11.150;2023-01-26T10:51:29;94937.59;;;0.57;62.94
67545;BME280;54380;47.770;11.150;2023-01-26T10:54:27;94931.63;;;0.57;62.70
67545;BME280;54380;47.770;11.150;2023-01-26T10:56:56;94936.19;;;0.55;62.93
67545;BME280;54380;47.770;11.150;2023-01-26T10:59:27;94938.41;;;0.58;63.40
67545;BME280;54380;47.770;11.150;2023-01-26T11:01:56;94935.47;;;0.61;64.27
67545;BME280;54380;47.770;11.150;2023-01-26T11:04:25;94933.91;;;0.67;64.26
67545;BME280;54380;47.770;11.150;2023-01-26T11:06:53;94939.47;;;0.63;64.24
67545;BME280;54380;47.770;11.150;2023-01-26T11:09:24;94930.06;;;0.62;64.82
67545;BME280;54380;47.770;11.150;2023-01-26T11:11:58;94930.28;;;0.61;64.89
67545;BME280;54380;47.770;11.150;2023-01-26T11:14:26;94934.47;;;0.62;65.00
67545;BME280;54380;47.770;11.150;2023-01-26T11:16:59;94929.50;;;0.67;64.74
67545;BME280;54380;47.770;11.150;2023-01-26T11:19:33;94927.16;;;0.72;64.68
67545;BME280;54380;47.770;11.150;2023-01-26T11:22:05;94922.56;;;0.74;64.17
67545;BME280;54380;47.770;11.150;2023-01-26T11:24:40;94928.34;;;0.70;64.28
67545;BME280;54380;47.770;11.150;2023-01-26T11:27:37;94926.94;;;0.74;64.53
67545;BME280;54380;47.770;11.150;2023-01-26T11:30:47;94923.38;;;0.75;64.84
67545;BME280;54380;47.770;11.150;2023-01-26T11:33:24;94918.97;;;0.75;63.94
67545;BME280;54380;47.770;11.150;2023-01-26T11:36:02;94916.38;;;0.75;63.89
67545;BME280;54380;47.770;11.150;2023-01-26T11:38:35;94917.63;;;0.79;64.29
67545;BME280;54380;47.770;11.150;2023-01-26T11:41:15;94909.00;;;0.79;64.62
67545;BME280;54380;47.770;11.150;2023-01-26T11:44:05;94908.81;;;0.80;64.20
67545;BME280;54380;47.770;11.150;2023-01-26T11:46:51;94904.44;;;0.81;64.31
67545;BME280;54380;47.770;11.150;2023-01-26T11:49:30;94901.09;;;0.87;64.81
67545;BME280;54380;47.770;11.150;2023-01-26T11:52:06;94899.16;;;0.96;64.72
67545;BME280;54380;47.770;11.150;2023-01-26T11:54:45;94894.41;;;1.06;64.76
67545;BME280;54380;47.770;11.150;2023-01-26T11:57:23;94899.03;;;1.10;64.23
67545;BME280;54380;47.770;11.150;2023-01-26T11:59:57;94897.25;;;1.11;64.31
67545;BME280;54380;47.770;11.150;2023-01-26T12:02:29;94893.47;;;1.14;63.83
67545;BME280;54380;47.770;11.150;2023-01-26T12:04:59;94893.06;;;1.17;63.44
67545;BME280;54380;47.770;11.150;2023-01-26T12:07:30;94889.44;;;1.11;63.29
67545;BME280;54380;47.770;11.150;2023-01-26T12:09:59;94893.81;;;1.10;63.13
67545;BME280;54380;47.770;11.150;2023-01-26T12:12:33;94892.22;;;1.09;63.51
67545;BME280;54380;47.770;11.150;2023-01-26T12:15:11;94892.03;;;1.11;62.72
67545;BME280;54380;47.770;11.150;2023-01-26T12:17:46;94891.03;;;1.12;63.21
67545;BME280;54380;47.770;11.150;2023-01-26T12:20:25;94892.28;;;1.16;62.79
67545;BME280;54380;47.770;11.150;2023-01-26T12:22:59;94890.28;;;1.18;62.82
67545;BME280;54380;47.770;11.150;2023-01-26T12:25:31;94881.28;;;1.21;63.25
67545;BME280;54380;47.770;11.150;2023-01-26T12:28:05;94884.13;;;1.26;63.28
67545;BME280;54380;47.770;11.150;2023-01-26T12:30:42;94884.34;;;1.31;62.92
67545;BME280;54380;47.770;11.150;2023-01-26T12:33:13;94878.97;;;1.33;63.14
67545;BME280;54380;47.770;11.150;2023-01-26T12:35:55;94875.56;;;1.32;62.70
67545;BME280;54380;47.770;11.150;2023-01-26T12:38:39;94873.94;;;1.31;62.29
67545;BME280;54380;47.770;11.150;2023-01-26T12:41:12;94876.31;;;1.26;62.22
67545;BME280;54380;47.770;11.150;2023-01-26T12:43:53;94865.91;;;1.19;61.99
67545;BME280;54380;47.770;11.150;2023-01-26T12:46:25;94875.84;;;1.16;62.38
67545;BME280;54380;47.770;11.150;2023-01-26T12:48:58;94867.06;;;1.17;62.84
67545;BME280;54380;47.770;11.150;2023-01-26T12:51:31;94874.91;;;1.23;63.66
67545;BME280;54380;47.770;11.150;2023-01-26T12:54:04;94879.34;;;1.29;63.29
67545;BME280;54380;47.770;11.150;2023-01-26T12:56:38;94870.94;;;1.34;62.90
67545;BME280;54380;47.770;11.150;2023-01-26T12:59:13;94875.16;;;1.35;63.32
67545;BME280;54380;47.770;11.150;2023-01-26T13:02:10;94876.59;;;1.38;63.26
67545;BME280;54380;47.770;11.150;2023-01-26T13:04:44;94873.97;;;1.38;62.79
67545;BME280;54380;47.770;11.150;2023-01-26T13:07:33;94878.38;;;1.37;62.97
67545;BME280;54380;47.770;11.150;2023-01-26T13:10:19;94879.97;;;1.38;63.04
67545;BME280;54380;47.770;11.150;2023-01-26T13:12:48;94870.19;;;1.40;62.97
67545;BME280;54380;47.770;11.150;2023-01-26T13:15:17;94869.19;;;1.41;63.15
67545;BME280;54380;47.770;11.150;2023-01-26T13:17:56;94873.19;;;1.37;63.29
67545;BME280;54380;47.770;11.150;2023-01-26T13:23:49;94865.56;;;1.36;63.78
67545;BME280;54380;47.770;11.150;2023-01-26T13:29:26;94861.00;;;1.44;63.32